createdAt,value
2023-03-06T00:01:01.640Z,47.70
2023-03-06T00:03:46.533Z,50.40
2023-03-06T00:06:31.284Z,45.73
2023-03-06T00:09:16.302Z,46.40
2023-03-06T00:12:01.282Z,53.93
2023-03-06T00:14:46.199Z,52.23
2023-03-06T00:17:31.055Z,50.87
2023-03-06T00:20:15.826Z,55.13
2023-03-06T00:23:00.694Z,54.73
2023-03-06T00:25:46.046Z,52.27
2023-03-06T00:28:31.493Z,54.83
2023-03-06T00:31:16.235Z,50.93
2023-03-06T00:34:01.414Z,52.80
2023-03-06T00:36:46.634Z,51.40
2023-03-06T00:39:31.408Z,58.47
2023-03-06T00:42:17.101Z,56.87
2023-03-06T00:45:02.189Z,56.70
2023-03-06T00:47:47.239Z,56.67
2023-03-06T00:50:32.045Z,57.27
2023-03-06T00:53:16.750Z,62.50
2023-03-06T00:56:01.641Z,53.33
2023-03-06T00:58:46.602Z,50.90
2023-03-06T01:01:31.349Z,52.60
2023-03-06T01:04:16.088Z,47.20
2023-03-06T01:07:00.993Z,51.57
2023-03-06T01:09:45.829Z,45.67
2023-03-06T01:12:30.795Z,48.43
2023-03-06T01:15:15.519Z,50.60
2023-03-06T01:18:00.401Z,46.30
2023-03-06T01:20:45.160Z,48.53
2023-03-06T01:23:30.049Z,55.20
2023-03-06T01:26:14.882Z,50.70
2023-03-06T01:28:59.649Z,50.43
2023-03-06T01:31:44.501Z,51.60
2023-03-06T01:34:29.245Z,57.63
2023-03-06T01:37:14.149Z,55.50
2023-03-06T01:39:58.871Z,54.40
2023-03-06T01:42:44.381Z,55.77
2023-03-06T01:45:30.126Z,56.60
2023-03-06T01:48:15.741Z,56.73
2023-03-06T01:51:00.909Z,55.67
2023-03-06T01:53:46.132Z,48.97
2023-03-06T01:56:31.127Z,55.93
2023-03-06T01:59:16.459Z,56.57
2023-03-06T02:02:02.513Z,55.40
2023-03-06T02:04:48.021Z,53.03
2023-03-06T02:07:33.513Z,69.00
2023-03-06T02:10:19.322Z,59.87
2023-03-06T02:13:04.478Z,53.80
2023-03-06T02:15:49.407Z,60.00
2023-03-06T02:18:34.372Z,51.87
2023-03-06T02:21:28.236Z,57.73
2023-03-06T02:24:22.096Z,55.53
2023-03-06T02:27:07.523Z,52.13
2023-03-06T02:29:52.582Z,54.70
2023-03-06T02:32:37.434Z,59.60
2023-03-06T02:35:27.385Z,59.17
2023-03-06T02:38:14.830Z,61.43
2023-03-06T02:41:01.573Z,63.50
2023-03-06T02:43:47.733Z,59.23
2023-03-06T02:46:32.589Z,67.20
2023-03-06T02:49:17.397Z,62.17
2023-03-06T02:52:02.347Z,61.03
2023-03-06T02:54:47.225Z,54.40
2023-03-06T02:57:32.014Z,55.43
2023-03-06T03:00:17.282Z,48.27
2023-03-06T03:03:02.562Z,54.37
2023-03-06T03:05:47.721Z,51.03
2023-03-06T03:08:33.544Z,55.17
2023-03-06T03:11:18.473Z,52.77
2023-03-06T03:14:03.534Z,52.50
2023-03-06T03:16:48.450Z,53.87
2023-03-06T03:19:33.212Z,53.53
2023-03-06T03:22:17.970Z,61.03
2023-03-06T03:25:04.046Z,57.77
2023-03-06T03:27:48.830Z,58.03
2023-03-06T03:30:33.633Z,56.33
2023-03-06T03:33:18.404Z,56.70
2023-03-06T03:36:04.439Z,62.33
2023-03-06T03:38:49.722Z,54.97
2023-03-06T03:41:34.722Z,56.43
2023-03-06T03:44:19.625Z,59.07
2023-03-06T03:47:05.153Z,61.70
2023-03-06T03:49:50.454Z,63.03
2023-03-06T03:52:35.766Z,59.53
2023-03-06T03:55:20.732Z,55.40
2023-03-06T03:58:05.797Z,56.00
2023-03-06T04:00:50.567Z,52.50
2023-03-06T04:03:35.838Z,53.73
2023-03-06T04:06:20.959Z,64.77
2023-03-06T04:09:06.186Z,59.23
2023-03-06T04:11:50.909Z,59.33
2023-03-06T04:14:35.710Z,62.30
2023-03-06T04:17:20.574Z,64.07
2023-03-06T04:20:05.513Z,60.30
2023-03-06T04:22:50.845Z,65.50
2023-03-06T04:25:35.785Z,59.53
2023-03-06T04:28:20.700Z,52.83
2023-03-06T04:31:05.611Z,57.03
2023-03-06T04:33:50.640Z,66.30
2023-03-06T04:36:35.298Z,65.07
2023-03-06T04:39:20.075Z,59.20
2023-03-06T04:42:05.062Z,59.83
2023-03-06T04:44:50.045Z,64.57
2023-03-06T04:47:35.520Z,65.50
2023-03-06T04:50:20.795Z,56.43
2023-03-06T04:53:05.872Z,60.90
2023-03-06T04:55:51.003Z,69.20
2023-03-06T04:58:36.277Z,66.30
2023-03-06T05:01:21.450Z,63.63
2023-03-06T05:04:06.551Z,65.73
2023-03-06T05:06:51.768Z,66.90
2023-03-06T05:09:38.245Z,59.17
2023-03-06T05:12:23.777Z,52.43
2023-03-06T05:15:09.362Z,55.00
2023-03-06T05:17:55.309Z,50.57
2023-03-06T05:20:40.336Z,58.43
2023-03-06T05:23:25.906Z,53.20
2023-03-06T05:26:11.871Z,55.77
2023-03-06T05:28:57.129Z,59.33
2023-03-06T05:31:41.881Z,61.70
2023-03-06T05:34:26.706Z,61.77
2023-03-06T05:37:11.632Z,61.60
2023-03-06T05:39:56.698Z,66.33
2023-03-06T05:42:41.586Z,64.63
2023-03-06T05:45:26.465Z,62.37
2023-03-06T05:48:12.597Z,61.00
2023-03-06T05:50:58.208Z,67.40
2023-03-06T05:53:43.286Z,62.37
2023-03-06T05:56:28.216Z,63.87
2023-03-06T05:59:13.124Z,62.17
2023-03-06T06:01:57.939Z,66.60
2023-03-06T06:04:42.947Z,66.07
2023-03-06T06:07:27.782Z,62.77
2023-03-06T06:10:12.786Z,62.60
2023-03-06T06:12:57.663Z,57.73
2023-03-06T06:15:42.318Z,58.00
2023-03-06T06:18:27.349Z,60.70
2023-03-06T06:21:12.625Z,59.07
2023-03-06T06:23:57.446Z,65.73
2023-03-06T06:26:42.448Z,64.70
2023-03-06T06:29:27.978Z,70.80
2023-03-06T06:32:13.111Z,66.37
2023-03-06T06:34:58.057Z,58.07
2023-03-06T06:37:43.386Z,58.43
2023-03-06T06:40:29.539Z,65.00
2023-03-06T06:43:14.326Z,70.07
2023-03-06T06:46:18.686Z,75.67
2023-03-06T06:49:04.396Z,69.10
2023-03-06T06:51:49.343Z,72.40
2023-03-06T06:54:34.694Z,155.53
2023-03-06T06:57:19.937Z,68.53
2023-03-06T07:00:05.341Z,73.10
2023-03-06T07:02:51.212Z,68.33
2023-03-06T07:05:36.099Z,67.33
2023-03-06T07:08:21.087Z,63.23
2023-03-06T07:11:07.806Z,57.30
2023-03-06T07:13:52.865Z,59.67
2023-03-06T07:16:37.724Z,57.43
2023-03-06T07:19:22.708Z,58.70
2023-03-06T07:22:07.751Z,58.37
2023-03-06T07:24:52.854Z,58.60
2023-03-06T07:27:37.902Z,58.47
2023-03-06T07:30:23.590Z,57.73
2023-03-06T07:33:08.767Z,57.30
2023-03-06T07:35:53.618Z,62.10
2023-03-06T07:38:38.470Z,69.20
2023-03-06T07:41:23.498Z,68.80
2023-03-06T07:44:08.545Z,62.90
2023-03-06T07:46:53.599Z,67.57
2023-03-06T07:49:38.745Z,69.10
2023-03-06T07:52:23.602Z,72.10
2023-03-06T07:55:09.619Z,71.10
2023-03-06T07:57:54.454Z,71.57
2023-03-06T08:00:39.259Z,65.90
2023-03-06T08:03:24.399Z,64.33
2023-03-06T08:06:13.216Z,63.53
2023-03-06T08:08:58.351Z,64.77
2023-03-06T08:11:45.174Z,62.87
2023-03-06T08:14:30.065Z,58.90
2023-03-06T08:17:14.958Z,58.33
2023-03-06T08:19:59.784Z,64.83
2023-03-06T08:22:45.460Z,61.23
2023-03-06T08:25:30.293Z,60.10
2023-03-06T08:28:15.062Z,61.33
2023-03-06T08:31:06.881Z,60.40
2023-03-06T08:33:52.755Z,62.20
2023-03-06T08:36:37.924Z,61.37
2023-03-06T08:39:23.700Z,56.10
2023-03-06T08:42:09.507Z,53.80
2023-03-06T08:44:54.550Z,52.83
2023-03-06T08:47:39.473Z,46.60
2023-03-06T08:50:24.312Z,47.67
2023-03-06T08:53:08.994Z,49.87
2023-03-06T08:55:53.803Z,39.87
2023-03-06T08:58:38.575Z,33.33
2023-03-06T09:01:25.091Z,26.90
2023-03-06T09:04:11.654Z,32.90
2023-03-06T09:06:56.750Z,31.40
2023-03-06T09:09:42.066Z,29.67
2023-03-06T09:12:28.104Z,26.10
2023-03-06T09:15:14.576Z,30.47
2023-03-06T09:17:59.536Z,23.77
2023-03-06T09:20:44.410Z,25.47
2023-03-06T09:23:29.526Z,35.50
2023-03-06T09:26:14.800Z,23.63
2023-03-06T09:28:59.565Z,26.20
2023-03-06T09:31:44.779Z,26.67
2023-03-06T09:34:29.935Z,27.77
2023-03-06T09:37:16.292Z,25.43
2023-03-06T09:40:01.694Z,24.30
2023-03-06T09:42:46.438Z,22.57
2023-03-06T09:45:33.822Z,21.70
2023-03-06T09:48:22.247Z,24.37
2023-03-06T09:51:16.233Z,27.93
2023-03-06T09:54:14.317Z,32.23
2023-03-06T09:56:59.293Z,25.40
2023-03-06T09:59:45.518Z,24.00
2023-03-06T10:02:43.129Z,21.93
2023-03-06T10:05:32.958Z,23.00
2023-03-06T10:08:44.330Z,23.03
2023-03-06T10:14:31.630Z,28.27
2023-03-06T10:17:18.394Z,27.17
2023-03-06T10:20:18.854Z,28.53
2023-03-06T10:23:24.744Z,29.23
2023-03-06T10:26:30.331Z,29.73
2023-03-06T10:29:15.591Z,51.70
2023-03-06T10:32:07.630Z,26.80
2023-03-06T10:34:53.280Z,25.80
2023-03-06T10:37:38.262Z,26.33
2023-03-06T10:40:24.970Z,25.37
2023-03-06T10:43:12.185Z,27.67
2023-03-06T10:45:57.751Z,25.13
2023-03-06T10:48:42.880Z,22.43
2023-03-06T10:51:28.529Z,24.63
2023-03-06T10:54:13.712Z,26.33
2023-03-06T10:56:58.415Z,25.13
2023-03-06T10:59:53.884Z,23.43
2023-03-06T11:02:41.074Z,25.70
2023-03-06T11:05:26.279Z,25.93
2023-03-06T11:08:20.265Z,24.50
2023-03-06T11:11:07.260Z,24.83
2023-03-06T11:13:58.724Z,26.67
2023-03-06T11:19:32.661Z,26.40
2023-03-06T11:22:18.561Z,26.80
2023-03-06T11:25:03.582Z,25.17
2023-03-06T11:27:57.740Z,28.37
2023-03-06T11:30:44.582Z,31.47
2023-03-06T11:33:33.946Z,25.40
2023-03-06T11:36:23.146Z,26.70
2023-03-06T11:39:34.317Z,32.50
2023-03-06T11:42:19.337Z,29.70
2023-03-06T11:45:19.550Z,29.63
2023-03-06T11:48:10.484Z,29.13
2023-03-06T11:50:59.315Z,25.52
2023-03-06T11:53:44.265Z,29.90
2023-03-06T11:56:32.019Z,26.67
2023-03-06T11:59:26.099Z,29.07
2023-03-06T12:02:17.027Z,30.27
2023-03-06T12:05:14.269Z,25.80
2023-03-06T12:08:17.403Z,32.33
2023-03-06T12:11:06.373Z,26.33
2023-03-06T12:16:45.483Z,29.13
2023-03-06T12:19:41.392Z,30.13
2023-03-06T12:22:53.403Z,31.17
2023-03-06T12:25:49.019Z,31.83
2023-03-06T12:29:02.458Z,37.47
2023-03-06T12:31:50.333Z,32.17
2023-03-06T12:34:40.347Z,27.53
2023-03-06T12:37:43.511Z,30.97
2023-03-06T12:40:37.787Z,30.00
2023-03-06T12:43:23.013Z,29.13
2023-03-06T12:46:16.077Z,31.80
2023-03-06T12:49:03.494Z,33.07
2023-03-06T12:51:48.623Z,31.77
2023-03-06T12:54:36.604Z,33.87
2023-03-06T12:57:23.801Z,31.43
2023-03-06T13:00:28.855Z,33.30
2023-03-06T13:03:16.916Z,30.27
2023-03-06T13:06:20.838Z,29.77
2023-03-06T13:09:05.771Z,35.10
2023-03-06T13:11:50.510Z,35.45
2023-03-06T13:14:42.268Z,33.63
2023-03-06T13:17:35.736Z,31.48
2023-03-06T13:20:26.644Z,27.83
2023-03-06T13:23:30.106Z,27.27
2023-03-06T13:26:24.181Z,28.55
2023-03-06T13:29:27.930Z,33.22
2023-03-06T13:32:13.611Z,36.65
2023-03-06T13:34:58.495Z,27.13
2023-03-06T13:37:49.981Z,24.27
2023-03-06T13:40:35.404Z,25.25
2023-03-06T13:43:21.480Z,26.05
2023-03-06T13:46:14.457Z,28.30
2023-03-06T13:49:08.394Z,26.05
2023-03-06T13:51:53.332Z,24.75
2023-03-06T13:54:57.182Z,26.88
2023-03-06T13:57:48.015Z,20.27
2023-03-06T14:00:32.996Z,24.70
2023-03-06T14:03:36.931Z,21.60
2023-03-06T14:06:42.230Z,21.73
2023-03-06T14:09:34.215Z,20.13
2023-03-06T14:12:23.634Z,19.48
2023-03-06T14:15:14.845Z,20.33
2023-03-06T14:18:05.235Z,20.10
2023-03-06T14:21:01.453Z,18.70
2023-03-06T14:23:47.148Z,19.20
2023-03-06T14:26:34.211Z,20.80
2023-03-06T14:29:23.847Z,19.15
2023-03-06T14:32:10.677Z,16.75
2023-03-06T14:34:55.986Z,17.85
2023-03-06T14:37:40.861Z,15.52
2023-03-06T14:40:34.124Z,15.55
2023-03-06T14:43:20.560Z,17.88
2023-03-06T14:46:06.629Z,14.70
2023-03-06T14:48:51.665Z,18.05
2023-03-06T14:51:46.889Z,14.63
2023-03-06T14:54:33.251Z,16.95
2023-03-06T14:57:20.668Z,14.70
2023-03-06T15:00:06.868Z,15.80
2023-03-06T15:02:54.397Z,14.88
2023-03-06T15:05:40.519Z,15.98
2023-03-06T15:08:29.603Z,14.25
2023-03-06T15:11:14.832Z,15.43
2023-03-06T15:14:00.900Z,13.45
2023-03-06T15:16:46.141Z,16.15
2023-03-06T15:19:38.345Z,14.18
2023-03-06T15:22:39.833Z,15.85
2023-03-06T15:25:32.518Z,14.63
2023-03-06T15:28:29.987Z,15.48
2023-03-06T15:31:32.128Z,17.98
2023-03-06T15:34:19.646Z,14.35
2023-03-06T15:37:18.952Z,18.17
2023-03-06T15:40:09.178Z,16.90
2023-03-06T15:42:54.326Z,24.63
2023-03-06T15:45:39.131Z,21.15
2023-03-06T15:48:23.978Z,35.33
2023-03-06T15:51:08.855Z,12.48
2023-03-06T15:53:59.810Z,17.55
2023-03-06T15:56:51.676Z,14.32
2023-03-06T15:59:41.389Z,16.15
2023-03-06T16:02:26.323Z,14.48
2023-03-06T16:05:14.908Z,13.55
2023-03-06T16:08:00.142Z,14.63
2023-03-06T16:10:45.667Z,17.98
2023-03-06T16:13:30.618Z,29.95
2023-03-06T16:16:17.215Z,15.95
2023-03-06T16:19:03.264Z,15.75
2023-03-06T16:21:48.027Z,13.00
2023-03-06T16:24:33.008Z,15.27
2023-03-06T16:27:19.143Z,24.77
2023-03-06T16:30:04.637Z,18.02
2023-03-06T16:32:49.586Z,18.45
2023-03-06T16:35:34.377Z,20.13
2023-03-06T16:38:19.327Z,20.87
2023-03-06T16:41:04.411Z,25.47
2023-03-06T16:43:49.870Z,27.60
2023-03-06T16:46:36.991Z,32.97
2023-03-06T16:49:23.494Z,33.67
2023-03-06T16:52:09.626Z,19.87
2023-03-06T16:54:54.794Z,13.87
2023-03-06T16:57:39.540Z,17.00
2023-03-06T17:00:31.168Z,18.07
2023-03-06T17:03:17.801Z,26.03
2023-03-06T17:06:03.540Z,29.37
2023-03-06T17:08:48.953Z,25.50
2023-03-06T17:11:35.629Z,27.93
2023-03-06T17:14:20.418Z,25.37
2023-03-06T17:17:05.566Z,26.50
2023-03-06T17:19:50.739Z,17.77
2023-03-06T17:22:36.169Z,19.33
2023-03-06T17:25:21.193Z,19.67
2023-03-06T17:28:06.364Z,17.90
2023-03-06T17:30:51.086Z,19.47
2023-03-06T17:33:36.297Z,21.13
2023-03-06T17:36:21.516Z,17.47
2023-03-06T17:39:06.606Z,16.93
2023-03-06T17:41:51.265Z,16.43
2023-03-06T17:44:36.204Z,66.30
2023-03-06T17:47:21.100Z,15.87
2023-03-06T17:50:06.170Z,15.93
2023-03-06T17:52:50.976Z,24.10
2023-03-06T17:55:37.923Z,14.67
2023-03-06T17:58:23.104Z,26.70
2023-03-06T18:01:19.240Z,12.03
2023-03-06T18:04:04.218Z,15.63
2023-03-06T18:06:49.054Z,13.63
2023-03-06T18:09:34.842Z,13.87
2023-03-06T18:12:19.703Z,14.23
2023-03-06T18:15:04.758Z,13.93
2023-03-06T18:17:49.767Z,16.60
2023-03-06T18:20:34.893Z,13.67
2023-03-06T18:23:20.042Z,13.63
2023-03-06T18:26:11.473Z,14.70
2023-03-06T18:31:42.157Z,14.17
2023-03-06T18:34:27.331Z,14.30
2023-03-06T18:37:12.304Z,16.70
2023-03-06T18:39:57.200Z,15.07
2023-03-06T18:42:41.963Z,17.97
2023-03-06T18:45:26.793Z,11.20
2023-03-06T18:48:11.730Z,13.57
2023-03-06T18:50:56.594Z,14.87
2023-03-06T18:53:41.433Z,13.70
2023-03-06T18:56:26.278Z,11.57
2023-03-06T18:59:18.248Z,15.10
2023-03-06T19:02:03.690Z,13.00
2023-03-06T19:04:48.773Z,14.63
2023-03-06T19:07:33.621Z,11.03
2023-03-06T19:10:18.331Z,11.77
2023-03-06T19:13:03.760Z,11.30
2023-03-06T19:15:48.995Z,13.40
2023-03-06T19:18:34.267Z,14.80
2023-03-06T19:21:20.478Z,11.00
2023-03-06T19:24:07.440Z,15.43
2023-03-06T19:26:52.485Z,13.93
2023-03-06T19:29:38.453Z,14.50
2023-03-06T19:32:23.655Z,15.43
2023-03-06T19:35:10.871Z,13.93
2023-03-06T19:37:56.081Z,11.73
2023-03-06T19:40:40.890Z,12.50
2023-03-06T19:43:25.847Z,13.57
2023-03-06T19:46:12.454Z,11.53
2023-03-06T19:48:58.842Z,11.63
2023-03-06T19:51:44.304Z,13.50
2023-03-06T19:54:30.856Z,12.97
2023-03-06T19:57:17.276Z,14.47
2023-03-06T20:00:02.451Z,11.37
2023-03-06T20:02:47.321Z,12.10
2023-03-06T20:05:32.364Z,14.37
2023-03-06T20:08:17.100Z,10.10
2023-03-06T20:11:01.917Z,13.43
2023-03-06T20:13:48.015Z,14.37
2023-03-06T20:16:33.654Z,21.47
2023-03-06T20:19:18.702Z,11.80
2023-03-06T20:22:03.730Z,14.47
2023-03-06T20:24:48.605Z,14.63
2023-03-06T20:27:33.461Z,15.90
2023-03-06T20:30:18.524Z,16.70
2023-03-06T20:33:03.360Z,14.10
2023-03-06T20:35:48.222Z,15.67
2023-03-06T20:38:33.182Z,12.83
2023-03-06T20:41:23.097Z,14.97
2023-03-06T20:44:09.111Z,15.73
2023-03-06T20:46:55.223Z,16.07
2023-03-06T20:49:40.317Z,18.77
2023-03-06T20:52:25.152Z,16.07
2023-03-06T20:55:10.079Z,17.93
2023-03-06T20:57:55.173Z,16.03
2023-03-06T21:00:41.247Z,20.27
2023-03-06T21:03:26.297Z,15.97
2023-03-06T21:06:11.332Z,17.43
2023-03-06T21:08:56.720Z,18.57
2023-03-06T21:11:41.886Z,14.73
2023-03-06T21:14:26.672Z,18.13
2023-03-06T21:17:13.835Z,15.43
2023-03-06T21:19:59.137Z,14.90
2023-03-06T21:22:43.916Z,15.07
2023-03-06T21:25:28.924Z,16.30
2023-03-06T21:28:13.878Z,16.50
2023-03-06T21:31:02.309Z,15.67
2023-03-06T21:33:48.860Z,15.33
2023-03-06T21:36:33.929Z,15.07
2023-03-06T21:39:19.132Z,14.50
2023-03-06T21:42:04.084Z,51.70
2023-03-06T21:44:48.953Z,23.97
2023-03-06T21:47:38.454Z,17.00
2023-03-06T21:50:23.662Z,16.63
2023-03-06T21:53:09.261Z,19.20
2023-03-06T21:55:53.923Z,18.23
2023-03-06T21:58:38.873Z,18.97
2023-03-06T22:01:24.984Z,15.93
2023-03-06T22:04:10.059Z,21.33
2023-03-06T22:06:54.752Z,16.77
2023-03-06T22:09:39.550Z,15.77
2023-03-06T22:12:24.456Z,20.33
2023-03-06T22:15:09.528Z,18.33
2023-03-06T22:17:54.564Z,16.90
2023-03-06T22:20:39.713Z,18.60
2023-03-06T22:23:24.791Z,16.87
2023-03-06T22:26:11.177Z,17.60
2023-03-06T22:28:56.587Z,17.17
2023-03-06T22:31:41.750Z,18.67
2023-03-06T22:34:26.582Z,16.97
2023-03-06T22:37:11.400Z,20.87
2023-03-06T22:39:56.150Z,18.93
2023-03-06T22:42:40.996Z,25.83
2023-03-06T22:45:25.783Z,17.93
2023-03-06T22:48:11.600Z,16.67
2023-03-06T22:51:00.859Z,20.27
2023-03-06T22:53:46.023Z,19.27
2023-03-06T22:56:30.976Z,20.20
2023-03-06T22:59:15.926Z,19.63
2023-03-06T23:02:01.133Z,19.33
2023-03-06T23:04:51.978Z,18.87
2023-03-06T23:07:37.384Z,19.80
2023-03-06T23:10:22.289Z,21.87
2023-03-06T23:13:07.261Z,19.33
2023-03-06T23:15:52.254Z,18.57
2023-03-06T23:18:37.142Z,19.87
2023-03-06T23:21:22.941Z,18.10
2023-03-06T23:24:08.066Z,21.17
2023-03-06T23:26:53.076Z,17.73
2023-03-06T23:29:37.899Z,17.87
2023-03-06T23:32:22.772Z,15.93
2023-03-06T23:35:07.868Z,16.93
2023-03-06T23:37:52.942Z,16.43
2023-03-06T23:40:37.910Z,19.20
2023-03-06T23:43:22.837Z,16.90
2023-03-06T23:46:07.859Z,21.47
2023-03-06T23:48:52.815Z,18.70
2023-03-06T23:51:37.562Z,18.30
2023-03-06T23:54:22.403Z,18.20
2023-03-06T23:57:07.356Z,18.73
2023-03-06T23:59:52.283Z,20.33
